Time;durP1;ratioP1;P1;durP2;ratioP2;P2;SDS_P1;SDS_P2;PMS_P1;PMS_P2;Temp;Humidity;BMP_temperature;BMP_pressure;BME280_temperature;BME280_humidity;BME280_pressure;Samples;Min_cycle;Max_cycle;Signal;HPM_P1;HPM_P2
2022/07/10 00:02:03;;;;;;;5.65;4.70;;;;;;;;;;4863346;29;20149;-75
2022/07/10 00:04:30;;;;;;;5.35;4.18;;;;;;;;;;4868061;29;20581;-75
2022/07/10 00:06:58;;;;;;;4.78;4.25;;;;;;;;;;4882024;29;20052;-74
2022/07/10 00:09:25;;;;;;;5.35;4.18;;;;;;;;;;4897027;29;20083;-75
2022/07/10 00:11:51;;;;;;;4.25;3.85;;;;;;;;;;4881968;29;20059;-75
2022/07/10 00:14:18;;;;;;;6.60;4.30;;;;;;;;;;4881606;29;20091;-76
2022/07/10 00:16:45;;;;;;;4.32;3.92;;;;;;;;;;4897171;29;20577;-75
2022/07/10 00:19:12;;;;;;;4.55;4.03;;;;;;;;;;4884915;29;20084;-75
2022/07/10 00:21:38;;;;;;;4.20;3.80;;;;;;;;;;4878332;29;20081;-74
2022/07/10 00:24:06;;;;;;;4.20;3.90;;;;;;;;;;4878434;29;20140;-75
2022/07/10 00:26:33;;;;;;;4.00;3.53;;;;;;;;;;4878168;29;20132;-75
2022/07/10 00:28:59;;;;;;;5.32;4.85;;;;;;;;;;4862653;29;20068;-75
2022/07/10 00:31:26;;;;;;;4.90;4.47;;;;;;;;;;4847693;29;20063;-75
2022/07/10 00:33:53;;;;;;;4.68;4.28;;;;;;;;;;4889286;29;20061;-75
2022/07/10 00:36:20;;;;;;;5.05;4.55;;;;;;;;;;4881370;29;20143;-75
2022/07/10 00:38:46;;;;;;;5.15;4.65;;;;;;;;;;4896787;29;20055;-75
2022/07/10 00:41:13;;;;;;;4.38;3.97;;;;;;;;;;4896836;29;20080;-76
2022/07/10 00:43:58;;;;;;;3.97;3.67;;;;;;;;;;4881272;29;20056;-77
2022/07/10 00:46:26;;;;;;;4.55;3.67;;;;;;;;;;4895312;29;20108;-76
2022/07/10 00:48:53;;;;;;;4.47;4.00;;;;;;;;;;4878089;29;20141;-77
2022/07/10 00:51:22;;;;;;;4.43;4.10;;;;;;;;;;4886806;29;20148;-76
2022/07/10 00:53:49;;;;;;;10.07;4.60;;;;;;;;;;4865222;29;20088;-76
2022/07/10 00:56:17;;;;;;;4.40;3.97;;;;;;;;;;4877934;29;20077;-77
2022/07/10 00:58:44;;;;;;;4.35;3.95;;;;;;;;;;4877555;29;20092;-76
2022/07/10 01:01:11;;;;;;;4.78;4.28;;;;;;;;;;4863364;29;20080;-76
2022/07/10 01:03:37;;;;;;;6.18;4.25;;;;;;;;;;4896458;29;20090;-76
2022/07/10 01:06:04;;;;;;;5.40;4.80;;;;;;;;;;4896149;29;20143;-76
2022/07/10 01:08:32;;;;;;;5.60;5.10;;;;;;;;;;4895938;29;20080;-76
2022/07/10 01:10:59;;;;;;;4.50;4.10;;;;;;;;;;4880907;29;20059;-76
2022/07/10 01:13:26;;;;;;;5.22;4.82;;;;;;;;;;4865378;29;20079;-76
2022/07/10 01:15:53;;;;;;;6.00;5.40;;;;;;;;;;4895562;29;20148;-76
2022/07/10 01:18:20;;;;;;;5.03;4.63;;;;;;;;;;4880403;29;20053;-77
2022/07/10 01:20:51;;;;;;;5.43;4.90;;;;;;;;;;4880483;29;20056;-76
2022/07/10 01:23:18;;;;;;;7.00;5.82;;;;;;;;;;4896060;29;20080;-76
2022/07/10 01:25:45;;;;;;;5.15;4.70;;;;;;;;;;4895921;29;20048;-76
2022/07/10 01:28:11;;;;;;;5.55;4.95;;;;;;;;;;4879508;29;20516;-76
2022/07/10 01:30:38;;;;;;;5.65;5.00;;;;;;;;;;4877103;29;20089;-76
2022/07/10 01:33:05;;;;;;;6.38;4.72;;;;;;;;;;4861918;29;20073;-76
2022/07/10 01:35:31;;;;;;;6.07;5.47;;;;;;;;;;4877231;29;20080;-75
2022/07/10 01:37:58;;;;;;;5.75;5.13;;;;;;;;;;4861557;29;20059;-75
2022/07/10 01:40:25;;;;;;;7.47;5.05;;;;;;;;;;4861722;29;20059;-75
2022/07/10 01:42:52;;;;;;;5.28;4.68;;;;;;;;;;4886993;29;20497;-75
2022/07/10 01:45:18;;;;;;;5.00;4.57;;;;;;;;;;4877055;29;20458;-74
2022/07/10 01:47:45;;;;;;;5.60;4.70;;;;;;;;;;4876549;29;20061;-74
2022/07/10 01:50:12;;;;;;;8.48;5.47;;;;;;;;;;4862709;29;20061;-73
2022/07/10 01:52:39;;;;;;;6.20;5.60;;;;;;;;;;4877093;29;20673;-74
2022/07/10 01:55:06;;;;;;;6.50;5.20;;;;;;;;;;4876945;29;20056;-74
2022/07/10 01:57:33;;;;;;;7.53;5.80;;;;;;;;;;4880115;29;20798;-74
2022/07/10 01:59:59;;;;;;;6.22;5.63;;;;;;;;;;4896462;29;20049;-74
2022/07/10 02:02:26;;;;;;;7.30;6.35;;;;;;;;;;4895546;29;20052;-74
2022/07/10 02:04:53;;;;;;;6.82;6.00;;;;;;;;;;4895432;29;20052;-74
2022/07/10 02:07:22;;;;;;;7.15;6.22;;;;;;;;;;4895548;29;20566;-74
2022/07/10 02:09:48;;;;;;;7.82;5.90;;;;;;;;;;4883253;29;20103;-74
2022/07/10 02:12:16;;;;;;;6.95;6.35;;;;;;;;;;4876899;29;20132;-75
2022/07/10 02:14:43;;;;;;;7.60;6.80;;;;;;;;;;4876753;29;20600;-75
2022/07/10 02:17:11;;;;;;;7.63;6.85;;;;;;;;;;4876086;29;20052;-74
2022/07/10 02:19:38;;;;;;;9.10;6.53;;;;;;;;;;4895429;29;20088;-75
2022/07/10 02:22:05;;;;;;;7.18;6.47;;;;;;;;;;4895389;29;20056;-74
2022/07/10 02:24:32;;;;;;;7.82;6.10;;;;;;;;;;4895326;29;20080;-75
2022/07/10 02:26:58;;;;;;;6.68;6.10;;;;;;;;;;4882233;29;20076;-74
2022/07/10 02:29:25;;;;;;;7.30;6.60;;;;;;;;;;4876438;29;20084;-75
2022/07/10 02:31:52;;;;;;;8.45;5.95;;;;;;;;;;4876702;29;20069;-75
2022/07/10 02:34:19;;;;;;;5.93;5.32;;;;;;;;;;4876697;29;20060;-76
2022/07/10 02:36:46;;;;;;;7.15;5.78;;;;;;;;;;4872400;29;20136;-76
2022/07/10 02:39:12;;;;;;;5.75;5.18;;;;;;;;;;4895044;29;20063;-76
2022/07/10 02:41:40;;;;;;;8.13;5.93;;;;;;;;;;4895023;29;20576;-76
2022/07/10 02:44:07;;;;;;;7.47;5.40;;;;;;;;;;4895068;29;20063;-76
2022/07/10 02:46:34;;;;;;;10.70;5.78;;;;;;;;;;4885582;29;20056;-76
2022/07/10 02:49:01;;;;;;;6.85;5.68;;;;;;;;;;4876394;29;20049;-76
2022/07/10 02:51:29;;;;;;;6.25;5.65;;;;;;;;;;4876442;29;20573;-76
2022/07/10 02:53:56;;;;;;;5.90;5.40;;;;;;;;;;4876341;29;20088;-76
2022/07/10 02:56:22;;;;;;;7.00;5.53;;;;;;;;;;4868260;29;20140;-76
2022/07/10 02:58:49;;;;;;;7.90;5.65;;;;;;;;;;4880748;29;20080;-76
2022/07/10 03:01:16;;;;;;;7.43;6.15;;;;;;;;;;4899605;29;20057;-75
2022/07/10 03:03:42;;;;;;;6.40;5.40;;;;;;;;;;4882880;29;20052;-76
2022/07/10 03:06:09;;;;;;;6.15;5.60;;;;;;;;;;4892431;29;20501;-75
2022/07/10 03:08:36;;;;;;;6.90;6.32;;;;;;;;;;4879492;29;20053;-75
2022/07/10 03:11:03;;;;;;;6.90;6.25;;;;;;;;;;4879730;29;20573;-75
2022/07/10 03:13:30;;;;;;;6.97;6.28;;;;;;;;;;4880831;29;20045;-75
2022/07/10 03:15:56;;;;;;;6.28;5.78;;;;;;;;;;4884250;29;20609;-75
2022/07/10 03:18:23;;;;;;;6.60;5.95;;;;;;;;;;4882710;29;20057;-75
2022/07/10 03:20:50;;;;;;;6.63;6.03;;;;;;;;;;4898160;29;20524;-74
2022/07/10 03:23:17;;;;;;;7.47;6.78;;;;;;;;;;4897855;29;20139;-74
2022/07/10 03:25:43;;;;;;;7.68;6.70;;;;;;;;;;4895818;29;20096;-74
2022/07/10 03:28:10;;;;;;;11.85;9.18;;;;;;;;;;4879298;29;20056;-74
2022/07/10 03:30:37;;;;;;;8.55;7.68;;;;;;;;;;4879156;29;20053;-75
2022/07/10 03:33:03;;;;;;;8.68;7.38;;;;;;;;;;4879223;29;20132;-74
2022/07/10 03:35:33;;;;;;;9.20;7.57;;;;;;;;;;4863593;29;20139;-75
2022/07/10 03:38:00;;;;;;;7.45;6.65;;;;;;;;;;4878982;29;20140;-74
2022/07/10 03:40:27;;;;;;;7.57;6.53;;;;;;;;;;4880409;29;20092;-74
2022/07/10 03:42:54;;;;;;;9.57;7.03;;;;;;;;;;4879194;29;20520;-74
2022/07/10 03:45:21;;;;;;;8.32;6.60;;;;;;;;;;4879117;29;20151;-74
2022/07/10 03:47:47;;;;;;;7.68;6.68;;;;;;;;;;4896049;29;20135;-74
2022/07/10 03:50:14;;;;;;;8.68;7.45;;;;;;;;;;4897602;29;20059;-74
2022/07/10 03:52:41;;;;;;;11.88;7.78;;;;;;;;;;4897603;29;20119;-74
2022/07/10 03:55:08;;;;;;;8.68;7.78;;;;;;;;;;4897603;29;20056;-76
2022/07/10 04:00:27;;;;;;;7.90;7.13;;;;;;;;;;4887731;29;20063;-76
2022/07/10 04:02:57;;;;;;;11.13;7.05;;;;;;;;;;4898360;29;20061;-76
2022/07/10 04:05:25;;;;;;;7.90;6.85;;;;;;;;;;4848494;29;20151;-76
2022/07/10 04:07:52;;;;;;;6.68;6.07;;;;;;;;;;4863159;29;20057;-76
2022/07/10 04:10:19;;;;;;;6.95;6.03;;;;;;;;;;4862625;29;20541;-77
2022/07/10 04:12:46;;;;;;;8.18;6.00;;;;;;;;;;4878634;29;20063;-76
2022/07/10 04:15:12;;;;;;;7.88;6.15;;;;;;;;;;4879188;29;20091;-76
2022/07/10 04:17:39;;;;;;;8.70;6.60;;;;;;;;;;4897203;29;20474;-76
2022/07/10 04:20:06;;;;;;;8.30;6.20;;;;;;;;;;4888367;29;20080;-76
2022/07/10 04:22:33;;;;;;;7.38;6.47;;;;;;;;;;4889902;29;20048;-76
2022/07/10 04:25:00;;;;;;;11.85;6.90;;;;;;;;;;4877643;29;20131;-76
2022/07/10 04:27:27;;;;;;;7.07;5.55;;;;;;;;;;4889700;29;20140;-75
2022/07/10 04:29:54;;;;;;;5.60;5.10;;;;;;;;;;4872901;29;20088;-75
2022/07/10 04:32:21;;;;;;;6.22;5.63;;;;;;;;;;4875546;29;20125;-75
2022/07/10 04:34:48;;;;;;;8.20;5.55;;;;;;;;;;4884413;29;20076;-77
2022/07/10 04:37:15;;;;;;;10.60;5.13;;;;;;;;;;4889918;29;20060;-78
2022/07/10 04:39:42;;;;;;;7.68;4.90;;;;;;;;;;4861559;29;20085;-78
2022/07/10 04:42:09;;;;;;;7.70;5.25;;;;;;;;;;4873142;29;20076;-78
2022/07/10 04:44:38;;;;;;;8.70;5.35;;;;;;;;;;4866304;29;20061;-78
2022/07/10 04:47:05;;;;;;;5.18;4.68;;;;;;;;;;4882084;29;20525;-77
2022/07/10 04:49:33;;;;;;;7.43;5.70;;;;;;;;;;4884961;29;20515;-79
2022/07/10 04:52:00;;;;;;;5.15;4.60;;;;;;;;;;4867621;29;20087;-77
2022/07/10 04:54:26;;;;;;;5.72;4.75;;;;;;;;;;4897285;29;20082;-77
2022/07/10 04:56:53;;;;;;;6.32;5.50;;;;;;;;;;4892390;29;20609;-78
2022/07/10 04:59:20;;;;;;;7.15;5.03;;;;;;;;;;4896183;29;20095;-77
2022/07/10 05:01:47;;;;;;;5.72;5.22;;;;;;;;;;4894794;29;20199;-76
2022/07/10 05:04:14;;;;;;;6.75;5.75;;;;;;;;;;4881001;29;20063;-77
2022/07/10 05:06:41;;;;;;;6.07;5.47;;;;;;;;;;4896423;29;20120;-76
2022/07/10 05:09:07;;;;;;;6.60;5.32;;;;;;;;;;4888278;29;20045;-76
2022/07/10 05:11:34;;;;;;;7.63;5.50;;;;;;;;;;4862151;29;20063;-76
2022/07/10 05:14:01;;;;;;;8.30;5.82;;;;;;;;;;4877409;29;20136;-76
2022/07/10 05:16:27;;;;;;;8.23;5.18;;;;;;;;;;4862091;29;20056;-77
2022/07/10 05:18:54;;;;;;;5.50;4.80;;;;;;;;;;4882591;29;20137;-77
2022/07/10 05:21:21;;;;;;;7.68;4.85;;;;;;;;;;4895926;29;20063;-76
2022/07/10 05:23:48;;;;;;;5.30;4.78;;;;;;;;;;4895205;29;20163;-77
2022/07/10 05:26:14;;;;;;;5.53;4.47;;;;;;;;;;4895845;29;20059;-77
2022/07/10 05:28:41;;;;;;;7.13;4.40;;;;;;;;;;4876399;29;20495;-76
2022/07/10 05:31:08;;;;;;;4.93;4.10;;;;;;;;;;4877254;29;20049;-76
2022/07/10 05:33:35;;;;;;;5.63;4.20;;;;;;;;;;4861798;29;20049;-76
2022/07/10 05:36:02;;;;;;;5.00;3.92;;;;;;;;;;4877275;29;20067;-76
2022/07/10 05:38:29;;;;;;;5.28;3.53;;;;;;;;;;4863246;29;20057;-77
2022/07/10 05:40:55;;;;;;;4.88;3.17;;;;;;;;;;4895827;29;20062;-77
2022/07/10 05:43:22;;;;;;;4.22;3.65;;;;;;;;;;4864987;29;20143;-76
2022/07/10 05:45:49;;;;;;;6.32;3.72;;;;;;;;;;4880550;29;20060;-77
2022/07/10 05:48:22;;;;;;;3.50;3.20;;;;;;;;;;4894819;29;20053;-77
2022/07/10 05:50:49;;;;;;;3.35;2.67;;;;;;;;;;4878463;29;20053;-77
2022/07/10 05:53:15;;;;;;;2.67;2.47;;;;;;;;;;4895419;29;20589;-78
2022/07/10 05:55:42;;;;;;;4.40;2.85;;;;;;;;;;4895445;29;20049;-76
2022/07/10 05:58:09;;;;;;;4.40;1.90;;;;;;;;;;4880035;29;20068;-76
2022/07/10 06:00:35;;;;;;;5.82;2.40;;;;;;;;;;4846925;29;20060;-76
2022/07/10 06:03:02;;;;;;;5.28;2.05;;;;;;;;;;4876748;29;20045;-76
2022/07/10 06:05:29;;;;;;;4.60;2.30;;;;;;;;;;4876739;29;20095;-76
2022/07/10 06:07:56;;;;;;;3.28;1.90;;;;;;;;;;4876549;29;20424;-76
2022/07/10 06:10:22;;;;;;;5.55;2.00;;;;;;;;;;4892183;29;20080;-76
2022/07/10 06:12:49;;;;;;;4.03;2.20;;;;;;;;;;4895396;29;20056;-76
2022/07/10 06:15:16;;;;;;;4.53;1.95;;;;;;;;;;4879826;29;20576;-76
2022/07/10 06:17:44;;;;;;;3.72;2.17;;;;;;;;;;4895514;29;20097;-76
2022/07/10 06:20:11;;;;;;;3.08;2.47;;;;;;;;;;4882176;29;20456;-76
2022/07/10 06:22:39;;;;;;;3.00;2.00;;;;;;;;;;4876724;29;20095;-77
2022/07/10 06:25:07;;;;;;;6.35;2.45;;;;;;;;;;4876751;29;20060;-77
2022/07/10 06:27:34;;;;;;;4.82;2.00;;;;;;;;;;4846417;29;20096;-77
2022/07/10 06:30:02;;;;;;;4.68;1.95;;;;;;;;;;4874000;29;20057;-83
2022/07/10 06:32:28;;;;;;;5.30;2.00;;;;;;;;;;4866846;29;20059;-85
2022/07/10 06:34:55;;;;;;;2.78;1.70;;;;;;;;;;4868245;29;20135;-86
2022/07/10 06:37:22;;;;;;;2.33;1.60;;;;;;;;;;4877427;29;20424;-86
2022/07/10 06:39:49;;;;;;;2.65;2.03;;;;;;;;;;4880949;29;20060;-85
2022/07/10 06:42:16;;;;;;;3.65;2.13;;;;;;;;;;4865416;29;20148;-85
2022/07/10 06:44:43;;;;;;;7.88;2.40;;;;;;;;;;4850546;29;20057;-85
2022/07/10 06:50:00;;;;;;;3.03;1.85;;;;;;;;;;4887751;29;20162;-85
2022/07/10 06:52:26;;;;;;;3.60;1.80;;;;;;;;;;4886501;29;20120;-85
2022/07/10 06:54:53;;;;;;;5.57;2.05;;;;;;;;;;4885716;29;20087;-85
2022/07/10 06:57:20;;;;;;;5.47;2.15;;;;;;;;;;4864284;29;20078;-85
2022/07/10 06:59:47;;;;;;;4.10;1.77;;;;;;;;;;4877697;29;20496;-85
2022/07/10 07:02:14;;;;;;;2.72;1.50;;;;;;;;;;4872234;29;20060;-85
2022/07/10 07:04:42;;;;;;;1.85;1.30;;;;;;;;;;4922866;29;20051;-85
2022/07/10 07:07:09;;;;;;;5.35;1.75;;;;;;;;;;4915919;29;20084;-85
2022/07/10 07:09:36;;;;;;;5.60;2.28;;;;;;;;;;4885652;29;20057;-85
2022/07/10 07:12:03;;;;;;;3.00;1.83;;;;;;;;;;4855231;29;20136;-85
2022/07/10 07:14:30;;;;;;;4.20;1.70;;;;;;;;;;4885077;29;20101;-85
2022/07/10 07:17:05;;;;;;;6.03;1.50;;;;;;;;;;4873405;29;20068;-84
2022/07/10 07:23:09;;;;;;;2.85;1.30;;;;;;;;;;4874867;29;20055;-85
2022/07/10 07:25:06;;;;;;;2.70;1.70;;;;;;;;;;4890436;29;20128;-85
2022/07/10 07:27:34;;;;;;;3.25;1.45;;;;;;;;;;4866561;29;20060;-86
2022/07/10 07:30:06;;;;;;;3.83;1.23;;;;;;;;;;4889366;29;20053;-85
2022/07/10 07:32:33;;;;;;;1.42;1.10;;;;;;;;;;4870985;29;20052;-85
2022/07/10 07:35:00;;;;;;;3.85;1.00;;;;;;;;;;4856950;29;20057;-84
2022/07/10 07:37:41;;;;;;;3.22;1.30;;;;;;;;;;4874037;29;20104;-85
2022/07/10 07:40:10;;;;;;;3.58;1.10;;;;;;;;;;4898669;23;20103;-70
2022/07/10 07:42:37;;;;;;;3.13;1.20;;;;;;;;;;4921288;29;20062;-70
2022/07/10 07:45:04;;;;;;;4.47;1.40;;;;;;;;;;4934946;29;20052;-73
2022/07/10 07:47:44;;;;;;;3.70;1.52;;;;;;;;;;4921403;29;20063;-71
2022/07/10 07:50:12;;;;;;;3.42;1.55;;;;;;;;;;4919702;29;20059;-72
2022/07/10 07:52:39;;;;;;;2.90;1.10;;;;;;;;;;4916974;29;20059;-72
2022/07/10 07:55:06;;;;;;;6.63;1.33;;;;;;;;;;4916706;29;20147;-73
2022/07/10 07:57:33;;;;;;;3.55;1.13;;;;;;;;;;4917536;29;20048;-74
2022/07/10 07:59:59;;;;;;;3.80;1.30;;;;;;;;;;4917455;29;20059;-73
2022/07/10 08:02:26;;;;;;;2.35;1.10;;;;;;;;;;4917387;29;20052;-71
2022/07/10 08:04:53;;;;;;;1.92;1.10;;;;;;;;;;4916968;29;20472;-73
2022/07/10 08:07:19;;;;;;;5.15;1.20;;;;;;;;;;4917537;29;20052;-69
2022/07/10 08:09:46;;;;;;;3.03;1.35;;;;;;;;;;4917201;29;20048;-71
2022/07/10 08:12:13;;;;;;;2.75;1.13;;;;;;;;;;4917448;29;20091;-73
2022/07/10 08:14:39;;;;;;;4.80;1.10;;;;;;;;;;4917130;29;20052;-72
2022/07/10 08:17:06;;;;;;;4.38;1.48;;;;;;;;;;4914586;29;20076;-69
2022/07/10 08:19:33;;;;;;;3.22;1.33;;;;;;;;;;4904162;29;20412;-69
2022/07/10 08:21:59;;;;;;;4.22;1.15;;;;;;;;;;4905373;29;20468;-70
2022/07/10 08:24:26;;;;;;;4.15;1.00;;;;;;;;;;4904977;29;20048;-70
2022/07/10 08:26:53;;;;;;;2.78;1.30;;;;;;;;;;4907985;29;20139;-74
2022/07/10 08:29:20;;;;;;;3.13;1.20;;;;;;;;;;4907611;29;20496;-71
2022/07/10 08:31:50;;;;;;;1.92;1.08;;;;;;;;;;4910011;29;20049;-73
2022/07/10 08:34:18;;;;;;;2.72;1.48;;;;;;;;;;4882335;29;20061;-75
2022/07/10 08:36:51;;;;;;;1.63;1.17;;;;;;;;;;4916122;29;20425;-72
2022/07/10 08:39:20;;;;;;;4.75;1.48;;;;;;;;;;4903996;29;20048;-71
2022/07/10 08:41:50;;;;;;;6.20;1.40;;;;;;;;;;4906191;29;20060;-70
2022/07/10 08:44:17;;;;;;;5.30;1.40;;;;;;;;;;4904043;29;20118;-70
2022/07/10 08:46:45;;;;;;;3.17;1.77;;;;;;;;;;4907611;29;20056;-71
2022/07/10 08:49:15;;;;;;;2.40;1.35;;;;;;;;;;4907677;29;20060;-67
2022/07/10 08:51:58;;;;;;;3.25;1.23;;;;;;;;;;4906217;29;20044;-70
2022/07/10 08:54:27;;;;;;;6.07;1.20;;;;;;;;;;4903175;29;20059;-70
2022/07/10 08:56:58;;;;;;;2.58;1.10;;;;;;;;;;4920040;29;20049;-69
2022/07/10 08:59:25;;;;;;;2.53;1.02;;;;;;;;;;4920078;29;20055;-69
2022/07/10 09:01:57;;;;;;;2.67;1.05;;;;;;;;;;4908933;29;20048;-70
2022/07/10 09:04:26;;;;;;;3.22;1.10;;;;;;;;;;4904758;29;20044;-72
2022/07/10 09:06:54;;;;;;;4.30;1.60;;;;;;;;;;4904126;29;20096;-70
2022/07/10 09:09:37;;;;;;;4.40;1.20;;;;;;;;;;4906473;29;20053;-75
2022/07/10 09:12:04;;;;;;;1.70;1.10;;;;;;;;;;4908106;29;20090;-70
2022/07/10 09:14:34;;;;;;;5.80;1.10;;;;;;;;;;4903402;29;20052;-73
2022/07/10 09:17:02;;;;;;;2.75;0.90;;;;;;;;;;4896563;29;20067;-72
2022/07/10 09:19:32;;;;;;;3.30;1.50;;;;;;;;;;4886653;29;20445;-73
2022/07/10 09:22:07;;;;;;;1.83;1.00;;;;;;;;;;4907598;29;20052;-72
2022/07/10 09:24:37;;;;;;;3.80;1.20;;;;;;;;;;4916563;29;20134;-70
2022/07/10 09:27:04;;;;;;;2.25;1.45;;;;;;;;;;4907334;29;20488;-69
2022/07/10 09:29:32;;;;;;;1.10;0.73;;;;;;;;;;4904621;29;20057;-68
2022/07/10 09:32:00;;;;;;;1.38;0.80;;;;;;;;;;4908368;29;20048;-71
2022/07/10 09:34:43;;;;;;;3.15;0.90;;;;;;;;;;4920946;29;20411;-68
2022/07/10 09:37:18;;;;;;;2.75;0.75;;;;;;;;;;4907715;29;20071;-69
2022/07/10 09:40:03;;;;;;;4.40;0.98;;;;;;;;;;4901515;29;20064;-68
2022/07/10 09:42:36;;;;;;;2.70;1.00;;;;;;;;;;4905638;29;20500;-68
2022/07/10 09:45:18;;;;;;;3.05;1.05;;;;;;;;;;4904994;29;20044;-68
2022/07/10 09:48:04;;;;;;;2.58;1.52;;;;;;;;;;4904811;29;20475;-68
2022/07/10 09:50:34;;;;;;;3.30;1.05;;;;;;;;;;4904466;29;20053;-68
2022/07/10 09:53:03;;;;;;;2.63;1.02;;;;;;;;;;4905750;29;20052;-68
2022/07/10 09:55:32;;;;;;;4.30;1.13;;;;;;;;;;4905265;29;20112;-68
2022/07/10 09:58:01;;;;;;;6.90;1.10;;;;;;;;;;4901157;29;20056;-68
2022/07/10 10:00:39;;;;;;;1.38;0.82;;;;;;;;;;4907262;29;20208;-68
2022/07/10 10:03:08;;;;;;;2.53;0.73;;;;;;;;;;4904015;29;20076;-68
2022/07/10 10:05:41;;;;;;;2.45;0.93;;;;;;;;;;4905360;29;20070;-68
2022/07/10 10:08:23;;;;;;;2.55;1.00;;;;;;;;;;4905299;29;20052;-68
2022/07/10 10:10:51;;;;;;;2.53;1.00;;;;;;;;;;4907965;29;20052;-68
2022/07/10 10:13:22;;;;;;;1.67;0.77;;;;;;;;;;4909896;29;20055;-68
2022/07/10 10:15:50;;;;;;;2.55;0.80;;;;;;;;;;4907564;29;20052;-68
2022/07/10 10:18:22;;;;;;;1.83;0.75;;;;;;;;;;4909761;29;20397;-68
2022/07/10 10:20:51;;;;;;;2.90;0.90;;;;;;;;;;4908815;29;20411;-68
2022/07/10 10:23:22;;;;;;;6.80;1.30;;;;;;;;;;4910272;29;20059;-68
2022/07/10 10:25:51;;;;;;;2.08;0.98;;;;;;;;;;4915679;29;20050;-68
2022/07/10 10:28:20;;;;;;;2.35;1.20;;;;;;;;;;4908150;29;20048;-68
2022/07/10 10:30:47;;;;;;;3.63;0.95;;;;;;;;;;4921029;29;20491;-68
2022/07/10 10:33:32;;;;;;;4.47;1.02;;;;;;;;;;4922915;29;20053;-69
2022/07/10 10:36:05;;;;;;;3.80;1.25;;;;;;;;;;4907271;29;20056;-68
2022/07/10 10:38:55;;;;;;;3.78;1.52;;;;;;;;;;4909607;29;20052;-68
2022/07/10 10:41:26;;;;;;;3.10;0.80;;;;;;;;;;4909799;29;20056;-68
2022/07/10 10:44:09;;;;;;;2.17;0.90;;;;;;;;;;4908667;29;20052;-68
2022/07/10 10:46:37;;;;;;;1.05;0.75;;;;;;;;;;4907044;29;20088;-68
2022/07/10 10:49:06;;;;;;;2.63;0.93;;;;;;;;;;4911967;29;20129;-68
2022/07/10 10:51:58;;;;;;;2.10;0.93;;;;;;;;;;4906917;29;20052;-68
2022/07/10 10:54:26;;;;;;;1.30;0.60;;;;;;;;;;4908215;29;20056;-68
2022/07/10 10:57:15;;;;;;;3.58;1.10;;;;;;;;;;4904244;29;20052;-67
2022/07/10 10:59:53;;;;;;;4.95;1.00;;;;;;;;;;4909146;29;20056;-68
2022/07/10 11:02:27;;;;;;;1.58;0.80;;;;;;;;;;4907582;29;20052;-68
2022/07/10 11:05:12;;;;;;;2.65;1.00;;;;;;;;;;4908229;29;20052;-68
2022/07/10 11:08:02;;;;;;;4.15;1.27;;;;;;;;;;4905844;29;20428;-68
2022/07/10 11:10:39;;;;;;;3.38;0.93;;;;;;;;;;4904797;29;20348;-66
2022/07/10 11:13:17;;;;;;;3.40;0.90;;;;;;;;;;4908877;29;20048;-67
2022/07/10 11:15:46;;;;;;;2.70;0.95;;;;;;;;;;4906729;29;20051;-66
2022/07/10 11:18:14;;;;;;;2.50;1.17;;;;;;;;;;4915175;29;20052;-72
2022/07/10 11:20:49;;;;;;;2.05;0.80;;;;;;;;;;4908382;29;20055;-68
2022/07/10 11:23:34;;;;;;;2.45;1.20;;;;;;;;;;4896040;29;20055;-72
2022/07/10 11:26:07;;;;;;;1.48;1.00;;;;;;;;;;4908607;29;20079;-69
2022/07/10 11:28:46;;;;;;;;;;;;;;;;;;4906190;29;20536;-69
2022/07/10 11:31:12;;;;;;;2.80;0.90;;;;;;;;;;4907267;29;20298;-68
2022/07/10 11:33:44;;;;;;;3.63;0.80;;;;;;;;;;4905820;29;20522;-67
2022/07/10 11:36:16;;;;;;;2.03;0.70;;;;;;;;;;4906687;29;20206;-66
2022/07/10 11:38:44;;;;;;;1.27;0.88;;;;;;;;;;4907795;29;20056;-67
2022/07/10 11:41:23;;;;;;;2.45;1.00;;;;;;;;;;4913901;29;20059;-67
2022/07/10 11:43:59;;;;;;;1.30;0.70;;;;;;;;;;4905283;29;20068;-69
2022/07/10 11:46:32;;;;;;;3.25;1.13;;;;;;;;;;4905984;29;20580;-67
2022/07/10 11:49:04;;;;;;;1.80;0.60;;;;;;;;;;4906371;29;20519;-67
2022/07/10 11:51:36;;;;;;;2.33;0.80;;;;;;;;;;4905488;29;20552;-66
2022/07/10 11:54:15;;;;;;;5.65;0.90;;;;;;;;;;4906178;29;20721;-66
2022/07/10 11:56:52;;;;;;;1.92;1.35;;;;;;;;;;4906445;29;20055;-66
2022/07/10 11:59:23;;;;;;;2.70;0.95;;;;;;;;;;4904986;29;20048;-66
2022/07/10 12:01:52;;;;;;;3.58;0.80;;;;;;;;;;4902575;29;20071;-67
2022/07/10 12:04:25;;;;;;;3.25;0.85;;;;;;;;;;4907990;29;20048;-67
2022/07/10 12:06:53;;;;;;;2.05;0.80;;;;;;;;;;4904042;29;20076;-66
2022/07/10 12:09:22;;;;;;;3.28;1.10;;;;;;;;;;4905205;29;20052;-67
2022/07/10 12:12:02;;;;;;;2.05;0.70;;;;;;;;;;4904823;29;20067;-66
2022/07/10 12:14:29;;;;;;;3.67;0.73;;;;;;;;;;4902633;29;20452;-67
2022/07/10 12:16:57;;;;;;;2.78;0.88;;;;;;;;;;4903901;29;20074;-66
2022/07/10 12:19:33;;;;;;;2.60;0.80;;;;;;;;;;4904291;29;20055;-67
2022/07/10 12:22:01;;;;;;;2.30;0.82;;;;;;;;;;4900033;29;20044;-67
2022/07/10 12:24:28;;;;;;;2.05;0.80;;;;;;;;;;4904931;29;20059;-69
2022/07/10 12:26:55;;;;;;;2.70;0.90;;;;;;;;;;4916617;29;20530;-67
2022/07/10 12:29:26;;;;;;;2.05;0.90;;;;;;;;;;4903304;29;20135;-67
2022/07/10 12:31:55;;;;;;;3.25;1.08;;;;;;;;;;4904784;29;20063;-67
2022/07/10 12:34:57;;;;;;;3.20;0.90;;;;;;;;;;4918632;29;20446;-67
2022/07/10 12:37:24;;;;;;;2.30;0.80;;;;;;;;;;4905680;29;20455;-69
2022/07/10 12:39:53;;;;;;;2.40;0.93;;;;;;;;;;4908464;29;20080;-67
2022/07/10 12:42:27;;;;;;;2.45;0.82;;;;;;;;;;4902879;29;20089;-65
2022/07/10 12:44:54;;;;;;;2.85;0.90;;;;;;;;;;4903500;29;20049;-66
2022/07/10 12:47:21;;;;;;;3.08;0.95;;;;;;;;;;4907093;29;20044;-66
2022/07/10 12:50:04;;;;;;;1.15;0.60;;;;;;;;;;4906557;29;20053;-66
2022/07/10 12:52:35;;;;;;;1.92;0.73;;;;;;;;;;4923901;29;20048;-66
2022/07/10 12:55:15;;;;;;;1.75;0.70;;;;;;;;;;4908986;29;20048;-66
2022/07/10 12:57:53;;;;;;;2.72;0.52;;;;;;;;;;4909275;29;20531;-66
2022/07/10 13:00:22;;;;;;;3.15;0.70;;;;;;;;;;4906905;29;20060;-66
2022/07/10 13:02:53;;;;;;;2.78;0.60;;;;;;;;;;4907088;29;20104;-66
2022/07/10 13:05:36;;;;;;;3.67;0.70;;;;;;;;;;4904336;29;20104;-66
2022/07/10 13:08:14;;;;;;;;;;;;;;;;;;4913160;29;20051;-66
2022/07/10 13:10:42;;;;;;;1.60;0.80;;;;;;;;;;4908088;29;19923;-66
2022/07/10 13:13:09;;;;;;;1.85;0.57;;;;;;;;;;4906338;29;20063;-66
2022/07/10 13:15:40;;;;;;;2.03;0.57;;;;;;;;;;4906864;29;20306;-66
2022/07/10 13:18:08;;;;;;;1.45;0.80;;;;;;;;;;4908693;29;20056;-66
2022/07/10 13:20:34;;;;;;;1.83;0.73;;;;;;;;;;4907415;29;20060;-66
2022/07/10 13:23:01;;;;;;;3.08;0.60;;;;;;;;;;4904170;29;20055;-66
2022/07/10 13:25:28;;;;;;;1.35;0.57;;;;;;;;;;4906421;29;20049;-66
2022/07/10 13:27:55;;;;;;;1.88;0.60;;;;;;;;;;4903287;29;20052;-67
2022/07/10 13:30:22;;;;;;;2.38;0.70;;;;;;;;;;4905385;29;20052;-66
2022/07/10 13:32:49;;;;;;;3.13;0.68;;;;;;;;;;4909932;29;20067;-67
2022/07/10 13:35:15;;;;;;;0.82;0.52;;;;;;;;;;4904356;29;20051;-66
2022/07/10 13:37:42;;;;;;;1.50;0.63;;;;;;;;;;4905838;29;20052;-66
2022/07/10 13:40:09;;;;;;;1.60;0.80;;;;;;;;;;4905498;29;20322;-66
2022/07/10 13:42:36;;;;;;;1.42;0.32;;;;;;;;;;4901728;29;20057;-66
2022/07/10 13:45:02;;;;;;;2.38;0.52;;;;;;;;;;4902645;29;20382;-66
2022/07/10 13:47:29;;;;;;;1.38;0.50;;;;;;;;;;4908039;29;20522;-66
2022/07/10 13:49:56;;;;;;;2.53;0.80;;;;;;;;;;4904404;29;20059;-66
2022/07/10 13:52:22;;;;;;;1.88;0.50;;;;;;;;;;4908599;29;20500;-66
2022/07/10 13:54:49;;;;;;;1.58;0.60;;;;;;;;;;4904050;29;20052;-66
2022/07/10 13:57:16;;;;;;;3.03;0.50;;;;;;;;;;4905649;29;20055;-66
2022/07/10 13:59:42;;;;;;;1.88;0.60;;;;;;;;;;4908056;29;20052;-66
2022/07/10 14:02:09;;;;;;;0.85;0.50;;;;;;;;;;4901725;29;20056;-66
2022/07/10 14:04:42;;;;;;;2.80;0.45;;;;;;;;;;4900467;29;20048;-67
2022/07/10 14:07:08;;;;;;;1.15;0.60;;;;;;;;;;4907580;29;20112;-66
2022/07/10 14:09:35;;;;;;;2.15;0.60;;;;;;;;;;4901038;29;20067;-66
2022/07/10 14:12:02;;;;;;;1.70;0.50;;;;;;;;;;4903692;29;20509;-66
2022/07/10 14:14:29;;;;;;;1.58;0.40;;;;;;;;;;4908152;29;20060;-66
2022/07/10 14:16:56;;;;;;;2.13;0.40;;;;;;;;;;4907808;29;20055;-66
2022/07/10 14:19:22;;;;;;;0.55;0.32;;;;;;;;;;4907147;29;20056;-66
2022/07/10 14:21:49;;;;;;;1.20;0.40;;;;;;;;;;4907412;29;20072;-66
2022/07/10 14:24:16;;;;;;;1.55;0.40;;;;;;;;;;4907355;29;20064;-66
2022/07/10 14:26:42;;;;;;;3.85;0.40;;;;;;;;;;4906258;29;20052;-66
2022/07/10 14:29:09;;;;;;;1.85;0.40;;;;;;;;;;4907257;29;20094;-66
2022/07/10 14:31:36;;;;;;;1.70;0.63;;;;;;;;;;4905858;29;20056;-66
2022/07/10 14:34:04;;;;;;;0.85;0.40;;;;;;;;;;4903431;29;20517;-66
2022/07/10 14:36:31;;;;;;;0.95;0.38;;;;;;;;;;4904716;29;20048;-66
2022/07/10 14:38:58;;;;;;;1.42;0.47;;;;;;;;;;4909013;29;20059;-66
2022/07/10 14:41:27;;;;;;;0.93;0.43;;;;;;;;;;4910734;29;20423;-66
2022/07/10 14:43:54;;;;;;;1.98;0.52;;;;;;;;;;4900360;29;20052;-66
2022/07/10 14:46:21;;;;;;;1.77;0.60;;;;;;;;;;4904120;29;20044;-65
2022/07/10 14:48:48;;;;;;;2.03;0.65;;;;;;;;;;4903074;29;20059;-65
2022/07/10 14:51:14;;;;;;;3.35;0.75;;;;;;;;;;4905303;29;20100;-65
2022/07/10 14:53:43;;;;;;;2.92;0.65;;;;;;;;;;4904080;29;20059;-64
2022/07/10 14:56:11;;;;;;;2.88;0.80;;;;;;;;;;4910949;29;20044;-65
2022/07/10 14:58:38;;;;;;;1.27;0.52;;;;;;;;;;4908567;29;20107;-64
2022/07/10 15:01:24;;;;;;;1.00;0.38;;;;;;;;;;4906332;29;20104;-65
2022/07/10 15:03:52;;;;;;;1.08;0.50;;;;;;;;;;4908608;29;20071;-65